sensor_id;sensor_type;location;lat;lon;timestamp;P1;durP1;ratioP1;P2;durP2;ratioP2
870;SDS011;422;51.280;7.236;2023-03-31T00:02:11;10.63;;;3.13;;
870;SDS011;422;51.280;7.236;2023-03-31T00:04:38;7.50;;;3.07;;
870;SDS011;422;51.280;7.236;2023-03-31T00:07:10;7.63;;;2.63;;
870;SDS011;422;51.280;7.236;2023-03-31T00:09:39;4.90;;;2.70;;
870;SDS011;422;51.280;7.236;2023-03-31T00:12:11;7.30;;;3.27;;
870;SDS011;422;51.280;7.236;2023-03-31T00:14:39;8.07;;;2.80;;
870;SDS011;422;51.280;7.236;2023-03-31T00:17:06;4.33;;;2.80;;
870;SDS011;422;51.280;7.236;2023-03-31T00:19:34;10.10;;;2.60;;
870;SDS011;422;51.280;7.236;2023-03-31T00:22:01;5.23;;;2.40;;
870;SDS011;422;51.280;7.236;2023-03-31T00:24:29;5.53;;;2.47;;
870;SDS011;422;51.280;7.236;2023-03-31T00:26:57;4.97;;;2.50;;
870;SDS011;422;51.280;7.236;2023-03-31T00:29:26;5.63;;;2.90;;
870;SDS011;422;51.280;7.236;2023-03-31T00:31:53;6.97;;;2.60;;
870;SDS011;422;51.280;7.236;2023-03-31T00:34:20;6.90;;;2.93;;
870;SDS011;422;51.280;7.236;2023-03-31T00:36:48;5.80;;;2.90;;
870;SDS011;422;51.280;7.236;2023-03-31T00:39:15;5.23;;;2.70;;
870;SDS011;422;51.280;7.236;2023-03-31T00:41:44;4.53;;;2.93;;
870;SDS011;422;51.280;7.236;2023-03-31T00:44:11;5.87;;;2.23;;
870;SDS011;422;51.280;7.236;2023-03-31T00:46:49;8.20;;;2.50;;
870;SDS011;422;51.280;7.236;2023-03-31T00:49:22;8.93;;;3.00;;
870;SDS011;422;51.280;7.236;2023-03-31T00:51:53;7.20;;;3.47;;
870;SDS011;422;51.280;7.236;2023-03-31T00:54:25;5.83;;;2.50;;
870;SDS011;422;51.280;7.236;2023-03-31T00:56:54;7.13;;;2.70;;
870;SDS011;422;51.280;7.236;2023-03-31T00:59:27;6.87;;;3.10;;
870;SDS011;422;51.280;7.236;2023-03-31T01:02:03;9.07;;;3.50;;
870;SDS011;422;51.280;7.236;2023-03-31T01:04:33;5.83;;;2.83;;
870;SDS011;422;51.280;7.236;2023-03-31T01:07:04;7.80;;;3.00;;
870;SDS011;422;51.280;7.236;2023-03-31T01:09:37;8.10;;;2.90;;
870;SDS011;422;51.280;7.236;2023-03-31T01:12:06;8.57;;;3.20;;
870;SDS011;422;51.280;7.236;2023-03-31T01:14:35;5.90;;;2.97;;
870;SDS011;422;51.280;7.236;2023-03-31T01:17:03;5.67;;;2.90;;
870;SDS011;422;51.280;7.236;2023-03-31T01:19:38;6.30;;;3.07;;
870;SDS011;422;51.280;7.236;2023-03-31T01:25:47;8.27;;;3.10;;
870;SDS011;422;51.280;7.236;2023-03-31T01:28:35;8.90;;;3.43;;
870;SDS011;422;51.280;7.236;2023-03-31T01:31:10;10.30;;;3.27;;
870;SDS011;422;51.280;7.236;2023-03-31T01:40:12;11.13;;;4.10;;
870;SDS011;422;51.280;7.236;2023-03-31T01:42:56;4.70;;;2.40;;
870;SDS011;422;51.280;7.236;2023-03-31T01:45:31;6.63;;;2.63;;
870;SDS011;422;51.280;7.236;2023-03-31T01:48:11;4.80;;;2.80;;
870;SDS011;422;51.280;7.236;2023-03-31T01:50:43;8.37;;;3.10;;
870;SDS011;422;51.280;7.236;2023-03-31T01:53:14;7.63;;;3.57;;
870;SDS011;422;51.280;7.236;2023-03-31T01:55:48;9.33;;;3.60;;
870;SDS011;422;51.280;7.236;2023-03-31T01:58:24;7.70;;;3.30;;
870;SDS011;422;51.280;7.236;2023-03-31T02:00:57;7.20;;;3.43;;
870;SDS011;422;51.280;7.236;2023-03-31T02:03:29;7.57;;;3.43;;
870;SDS011;422;51.280;7.236;2023-03-31T02:06:02;7.23;;;3.30;;
870;SDS011;422;51.280;7.236;2023-03-31T02:08:37;5.90;;;3.00;;
870;SDS011;422;51.280;7.236;2023-03-31T02:11:09;8.13;;;2.90;;
870;SDS011;422;51.280;7.236;2023-03-31T02:13:38;5.30;;;2.80;;
870;SDS011;422;51.280;7.236;2023-03-31T02:16:09;4.63;;;3.10;;
870;SDS011;422;51.280;7.236;2023-03-31T02:18:40;9.37;;;3.20;;
870;SDS011;422;51.280;7.236;2023-03-31T02:21:09;6.03;;;2.90;;
870;SDS011;422;51.280;7.236;2023-03-31T02:23:38;8.40;;;3.13;;
870;SDS011;422;51.280;7.236;2023-03-31T02:26:07;7.47;;;3.40;;
870;SDS011;422;51.280;7.236;2023-03-31T02:28:38;6.33;;;2.63;;
870;SDS011;422;51.280;7.236;2023-03-31T02:31:08;11.83;;;3.60;;
870;SDS011;422;51.280;7.236;2023-03-31T02:33:42;8.93;;;3.47;;
870;SDS011;422;51.280;7.236;2023-03-31T02:36:09;9.30;;;3.23;;
870;SDS011;422;51.280;7.236;2023-03-31T02:38:38;9.20;;;3.40;;
870;SDS011;422;51.280;7.236;2023-03-31T02:41:10;6.50;;;2.60;;
870;SDS011;422;51.280;7.236;2023-03-31T02:43:38;9.97;;;3.20;;
870;SDS011;422;51.280;7.236;2023-03-31T02:46:05;6.60;;;3.03;;
870;SDS011;422;51.280;7.236;2023-03-31T02:48:33;8.20;;;2.93;;
870;SDS011;422;51.280;7.236;2023-03-31T02:54:03;10.73;;;3.90;;
870;SDS011;422;51.280;7.236;2023-03-31T02:56:49;8.70;;;2.97;;
870;SDS011;422;51.280;7.236;2023-03-31T02:59:38;9.03;;;3.53;;
870;SDS011;422;51.280;7.236;2023-03-31T03:02:16;11.30;;;3.60;;
870;SDS011;422;51.280;7.236;2023-03-31T03:07:45;6.47;;;3.10;;
870;SDS011;422;51.280;7.236;2023-03-31T03:10:18;11.50;;;4.03;;
870;SDS011;422;51.280;7.236;2023-03-31T03:12:53;9.53;;;3.50;;
870;SDS011;422;51.280;7.236;2023-03-31T03:15:29;7.13;;;3.00;;
870;SDS011;422;51.280;7.236;2023-03-31T03:17:59;10.13;;;3.50;;
870;SDS011;422;51.280;7.236;2023-03-31T03:20:27;9.00;;;3.07;;
870;SDS011;422;51.280;7.236;2023-03-31T03:22:58;6.67;;;3.33;;
870;SDS011;422;51.280;7.236;2023-03-31T03:25:25;8.47;;;4.13;;
870;SDS011;422;51.280;7.236;2023-03-31T03:27:55;8.70;;;4.60;;
870;SDS011;422;51.280;7.236;2023-03-31T03:30:25;11.13;;;3.53;;
870;SDS011;422;51.280;7.236;2023-03-31T03:32:53;10.33;;;3.23;;
870;SDS011;422;51.280;7.236;2023-03-31T03:35:22;9.70;;;3.60;;
870;SDS011;422;51.280;7.236;2023-03-31T03:37:50;5.80;;;2.57;;
870;SDS011;422;51.280;7.236;2023-03-31T03:40:17;11.10;;;3.60;;
870;SDS011;422;51.280;7.236;2023-03-31T03:42:45;7.53;;;3.60;;
870;SDS011;422;51.280;7.236;2023-03-31T03:45:13;10.17;;;3.80;;
870;SDS011;422;51.280;7.236;2023-03-31T03:47:40;10.17;;;3.93;;
870;SDS011;422;51.280;7.236;2023-03-31T03:50:08;7.73;;;3.13;;
870;SDS011;422;51.280;7.236;2023-03-31T03:52:38;9.37;;;4.23;;
870;SDS011;422;51.280;7.236;2023-03-31T03:55:05;11.13;;;3.60;;
870;SDS011;422;51.280;7.236;2023-03-31T03:57:33;11.20;;;3.33;;
870;SDS011;422;51.280;7.236;2023-03-31T04:00:00;4.70;;;2.47;;
870;SDS011;422;51.280;7.236;2023-03-31T04:02:33;8.60;;;3.57;;
870;SDS011;422;51.280;7.236;2023-03-31T04:05:00;9.50;;;3.30;;
870;SDS011;422;51.280;7.236;2023-03-31T04:07:29;10.13;;;3.10;;
870;SDS011;422;51.280;7.236;2023-03-31T04:09:57;10.47;;;3.60;;
870;SDS011;422;51.280;7.236;2023-03-31T04:12:24;7.47;;;3.33;;
870;SDS011;422;51.280;7.236;2023-03-31T04:14:51;9.53;;;3.27;;
870;SDS011;422;51.280;7.236;2023-03-31T04:17:18;17.10;;;5.50;;
870;SDS011;422;51.280;7.236;2023-03-31T04:19:59;10.13;;;3.60;;
870;SDS011;422;51.280;7.236;2023-03-31T04:22:28;10.60;;;3.47;;
870;SDS011;422;51.280;7.236;2023-03-31T04:25:00;8.47;;;3.20;;
870;SDS011;422;51.280;7.236;2023-03-31T04:27:27;12.30;;;3.53;;
870;SDS011;422;51.280;7.236;2023-03-31T04:29:55;10.37;;;4.20;;
870;SDS011;422;51.280;7.236;2023-03-31T04:32:22;14.00;;;3.63;;
870;SDS011;422;51.280;7.236;2023-03-31T04:34:49;8.00;;;3.40;;
870;SDS011;422;51.280;7.236;2023-03-31T04:37:28;6.97;;;4.67;;
870;SDS011;422;51.280;7.236;2023-03-31T04:39:58;11.57;;;4.30;;
870;SDS011;422;51.280;7.236;2023-03-31T04:42:32;12.67;;;3.60;;
870;SDS011;422;51.280;7.236;2023-03-31T04:45:00;9.03;;;3.40;;
870;SDS011;422;51.280;7.236;2023-03-31T04:47:27;7.83;;;3.83;;
870;SDS011;422;51.280;7.236;2023-03-31T04:49:54;9.30;;;4.20;;
870;SDS011;422;51.280;7.236;2023-03-31T04:52:21;13.17;;;3.90;;
870;SDS011;422;51.280;7.236;2023-03-31T04:54:50;10.97;;;3.50;;
870;SDS011;422;51.280;7.236;2023-03-31T04:57:17;5.57;;;3.43;;
870;SDS011;422;51.280;7.236;2023-03-31T04:59:44;12.90;;;3.30;;
870;SDS011;422;51.280;7.236;2023-03-31T05:02:11;6.10;;;3.20;;
870;SDS011;422;51.280;7.236;2023-03-31T05:04:39;8.97;;;3.70;;
870;SDS011;422;51.280;7.236;2023-03-31T05:07:06;7.77;;;3.40;;
870;SDS011;422;51.280;7.236;2023-03-31T05:09:34;7.23;;;4.07;;
870;SDS011;422;51.280;7.236;2023-03-31T05:12:02;10.67;;;3.33;;
870;SDS011;422;51.280;7.236;2023-03-31T05:14:30;6.07;;;3.73;;
870;SDS011;422;51.280;7.236;2023-03-31T05:16:57;7.00;;;3.07;;
870;SDS011;422;51.280;7.236;2023-03-31T05:19:24;17.53;;;4.73;;
870;SDS011;422;51.280;7.236;2023-03-31T05:21:51;12.80;;;3.60;;
870;SDS011;422;51.280;7.236;2023-03-31T05:24:18;6.40;;;3.40;;
870;SDS011;422;51.280;7.236;2023-03-31T05:26:46;10.50;;;3.33;;
870;SDS011;422;51.280;7.236;2023-03-31T05:29:18;8.83;;;2.97;;
870;SDS011;422;51.280;7.236;2023-03-31T05:31:45;10.33;;;3.80;;
870;SDS011;422;51.280;7.236;2023-03-31T05:34:13;8.13;;;3.47;;
870;SDS011;422;51.280;7.236;2023-03-31T05:36:40;5.30;;;3.17;;
870;SDS011;422;51.280;7.236;2023-03-31T05:39:08;13.60;;;3.87;;
870;SDS011;422;51.280;7.236;2023-03-31T05:41:35;7.90;;;3.60;;
870;SDS011;422;51.280;7.236;2023-03-31T05:44:03;6.17;;;3.63;;
870;SDS011;422;51.280;7.236;2023-03-31T05:46:31;6.33;;;3.00;;
870;SDS011;422;51.280;7.236;2023-03-31T05:48:58;10.10;;;3.27;;
870;SDS011;422;51.280;7.236;2023-03-31T05:51:26;5.00;;;2.80;;
870;SDS011;422;51.280;7.236;2023-03-31T05:53:54;4.83;;;3.17;;
870;SDS011;422;51.280;7.236;2023-03-31T05:56:21;6.03;;;3.30;;
870;SDS011;422;51.280;7.236;2023-03-31T05:58:48;5.80;;;3.67;;
870;SDS011;422;51.280;7.236;2023-03-31T06:01:16;8.00;;;4.10;;
870;SDS011;422;51.280;7.236;2023-03-31T06:03:48;20.43;;;11.27;;
870;SDS011;422;51.280;7.236;2023-03-31T06:06:15;20.57;;;15.93;;
870;SDS011;422;51.280;7.236;2023-03-31T06:08:44;8.13;;;3.67;;
870;SDS011;422;51.280;7.236;2023-03-31T06:11:13;7.57;;;3.73;;
870;SDS011;422;51.280;7.236;2023-03-31T06:13:43;11.20;;;3.80;;
870;SDS011;422;51.280;7.236;2023-03-31T06:16:12;13.47;;;3.50;;
870;SDS011;422;51.280;7.236;2023-03-31T06:18:40;7.83;;;3.47;;
870;SDS011;422;51.280;7.236;2023-03-31T06:21:10;8.07;;;3.30;;
870;SDS011;422;51.280;7.236;2023-03-31T06:23:38;7.77;;;2.93;;
870;SDS011;422;51.280;7.236;2023-03-31T06:26:10;6.57;;;3.40;;
870;SDS011;422;51.280;7.236;2023-03-31T06:28:39;9.90;;;3.10;;
870;SDS011;422;51.280;7.236;2023-03-31T06:31:07;4.30;;;3.20;;
870;SDS011;422;51.280;7.236;2023-03-31T06:33:36;8.17;;;3.50;;
870;SDS011;422;51.280;7.236;2023-03-31T06:36:04;7.17;;;3.63;;
870;SDS011;422;51.280;7.236;2023-03-31T06:38:33;5.73;;;3.63;;
870;SDS011;422;51.280;7.236;2023-03-31T06:41:02;7.90;;;3.10;;
870;SDS011;422;51.280;7.236;2023-03-31T06:43:30;5.60;;;3.40;;
870;SDS011;422;51.280;7.236;2023-03-31T06:45:57;5.63;;;3.20;;
870;SDS011;422;51.280;7.236;2023-03-31T06:48:24;8.63;;;3.50;;
870;SDS011;422;51.280;7.236;2023-03-31T06:50:52;6.07;;;2.33;;
870;SDS011;422;51.280;7.236;2023-03-31T06:53:20;4.70;;;3.23;;
870;SDS011;422;51.280;7.236;2023-03-31T06:55:49;5.40;;;2.67;;
870;SDS011;422;51.280;7.236;2023-03-31T06:58:16;4.47;;;2.47;;
870;SDS011;422;51.280;7.236;2023-03-31T07:00:43;7.23;;;2.90;;
870;SDS011;422;51.280;7.236;2023-03-31T07:03:10;9.50;;;3.60;;
870;SDS011;422;51.280;7.236;2023-03-31T07:05:38;9.53;;;2.87;;
870;SDS011;422;51.280;7.236;2023-03-31T07:08:05;3.97;;;2.43;;
870;SDS011;422;51.280;7.236;2023-03-31T07:10:33;4.80;;;2.60;;
870;SDS011;422;51.280;7.236;2023-03-31T07:13:01;6.10;;;2.10;;
870;SDS011;422;51.280;7.236;2023-03-31T07:15:28;5.57;;;2.57;;
870;SDS011;422;51.280;7.236;2023-03-31T07:17:56;7.87;;;2.57;;
870;SDS011;422;51.280;7.236;2023-03-31T07:20:26;6.10;;;2.20;;
870;SDS011;422;51.280;7.236;2023-03-31T07:22:54;8.53;;;4.47;;
870;SDS011;422;51.280;7.236;2023-03-31T07:25:21;14.57;;;8.70;;
870;SDS011;422;51.280;7.236;2023-03-31T07:27:49;14.43;;;7.57;;
870;SDS011;422;51.280;7.236;2023-03-31T07:30:18;18.50;;;8.83;;
870;SDS011;422;51.280;7.236;2023-03-31T07:32:46;10.67;;;4.63;;
870;SDS011;422;51.280;7.236;2023-03-31T07:35:14;6.60;;;3.50;;
870;SDS011;422;51.280;7.236;2023-03-31T07:37:42;4.03;;;3.00;;
870;SDS011;422;51.280;7.236;2023-03-31T07:40:11;7.80;;;3.40;;
870;SDS011;422;51.280;7.236;2023-03-31T07:42:40;5.80;;;2.80;;
870;SDS011;422;51.280;7.236;2023-03-31T07:45:08;20.70;;;11.83;;
870;SDS011;422;51.280;7.236;2023-03-31T07:47:37;11.43;;;6.23;;
870;SDS011;422;51.280;7.236;2023-03-31T07:50:06;13.40;;;7.50;;
870;SDS011;422;51.280;7.236;2023-03-31T07:52:34;13.97;;;7.10;;
870;SDS011;422;51.280;7.236;2023-03-31T07:55:01;23.00;;;13.30;;
870;SDS011;422;51.280;7.236;2023-03-31T07:57:28;9.37;;;5.50;;
870;SDS011;422;51.280;7.236;2023-03-31T07:59:56;15.17;;;8.10;;
870;SDS011;422;51.280;7.236;2023-03-31T08:02:23;17.13;;;9.80;;
870;SDS011;422;51.280;7.236;2023-03-31T08:04:52;16.87;;;9.40;;
870;SDS011;422;51.280;7.236;2023-03-31T08:07:19;9.87;;;5.20;;
870;SDS011;422;51.280;7.236;2023-03-31T08:09:46;7.83;;;4.33;;
870;SDS011;422;51.280;7.236;2023-03-31T08:12:13;8.13;;;5.53;;
870;SDS011;422;51.280;7.236;2023-03-31T08:14:40;5.50;;;3.20;;
870;SDS011;422;51.280;7.236;2023-03-31T08:17:08;6.77;;;3.33;;
870;SDS011;422;51.280;7.236;2023-03-31T08:19:35;7.97;;;5.43;;
870;SDS011;422;51.280;7.236;2023-03-31T08:22:04;4.60;;;2.60;;
870;SDS011;422;51.280;7.236;2023-03-31T08:24:31;5.20;;;2.50;;
870;SDS011;422;51.280;7.236;2023-03-31T08:26:58;4.07;;;3.17;;
870;SDS011;422;51.280;7.236;2023-03-31T08:29:25;2.90;;;2.30;;
870;SDS011;422;51.280;7.236;2023-03-31T08:31:52;3.67;;;2.10;;
870;SDS011;422;51.280;7.236;2023-03-31T08:34:20;3.07;;;1.90;;
870;SDS011;422;51.280;7.236;2023-03-31T08:36:47;3.80;;;2.33;;
870;SDS011;422;51.280;7.236;2023-03-31T08:39:15;3.97;;;2.50;;
870;SDS011;422;51.280;7.236;2023-03-31T08:41:47;3.87;;;1.90;;
870;SDS011;422;51.280;7.236;2023-03-31T08:44:25;3.73;;;1.80;;
870;SDS011;422;51.280;7.236;2023-03-31T08:46:56;4.53;;;2.00;;
870;SDS011;422;51.280;7.236;2023-03-31T08:49:26;6.00;;;2.43;;
870;SDS011;422;51.280;7.236;2023-03-31T08:51:57;7.30;;;2.47;;
870;SDS011;422;51.280;7.236;2023-03-31T08:54:31;5.60;;;1.90;;
870;SDS011;422;51.280;7.236;2023-03-31T08:57:01;3.53;;;1.70;;
870;SDS011;422;51.280;7.236;2023-03-31T08:59:36;5.00;;;2.47;;
870;SDS011;422;51.280;7.236;2023-03-31T09:02:09;2.87;;;1.73;;
870;SDS011;422;51.280;7.236;2023-03-31T09:07:46;6.37;;;2.13;;
870;SDS011;422;51.280;7.236;2023-03-31T09:10:24;8.27;;;2.67;;
870;SDS011;422;51.280;7.236;2023-03-31T09:13:01;4.00;;;2.60;;
870;SDS011;422;51.280;7.236;2023-03-31T09:15:44;6.23;;;2.20;;
870;SDS011;422;51.280;7.236;2023-03-31T09:18:16;5.33;;;2.40;;
870;SDS011;422;51.280;7.236;2023-03-31T09:20:52;4.73;;;2.10;;
870;SDS011;422;51.280;7.236;2023-03-31T09:23:26;5.20;;;2.20;;
870;SDS011;422;51.280;7.236;2023-03-31T09:25:58;4.07;;;2.23;;
870;SDS011;422;51.280;7.236;2023-03-31T09:28:29;2.70;;;1.80;;
870;SDS011;422;51.280;7.236;2023-03-31T09:31:01;2.70;;;1.93;;
870;SDS011;422;51.280;7.236;2023-03-31T09:33:32;3.27;;;1.73;;
870;SDS011;422;51.280;7.236;2023-03-31T09:35:59;4.47;;;2.47;;
870;SDS011;422;51.280;7.236;2023-03-31T09:38:28;6.30;;;2.40;;
870;SDS011;422;51.280;7.236;2023-03-31T09:40:55;4.33;;;2.43;;
870;SDS011;422;51.280;7.236;2023-03-31T09:43:25;4.53;;;2.70;;
870;SDS011;422;51.280;7.236;2023-03-31T09:45:54;4.60;;;2.37;;
870;SDS011;422;51.280;7.236;2023-03-31T09:48:22;7.53;;;3.37;;
870;SDS011;422;51.280;7.236;2023-03-31T09:50:53;6.43;;;2.67;;
870;SDS011;422;51.280;7.236;2023-03-31T09:53:24;6.63;;;2.70;;
870;SDS011;422;51.280;7.236;2023-03-31T09:55:59;8.00;;;3.30;;
870;SDS011;422;51.280;7.236;2023-03-31T09:58:29;6.77;;;3.00;;
870;SDS011;422;51.280;7.236;2023-03-31T10:00:57;7.70;;;3.00;;
870;SDS011;422;51.280;7.236;2023-03-31T10:03:26;6.03;;;3.00;;
870;SDS011;422;51.280;7.236;2023-03-31T10:06:00;9.17;;;3.20;;
870;SDS011;422;51.280;7.236;2023-03-31T10:08:29;9.50;;;3.00;;
870;SDS011;422;51.280;7.236;2023-03-31T10:11:05;10.97;;;3.40;;
870;SDS011;422;51.280;7.236;2023-03-31T10:13:38;15.33;;;4.03;;
870;SDS011;422;51.280;7.236;2023-03-31T10:16:11;7.50;;;3.30;;
870;SDS011;422;51.280;7.236;2023-03-31T10:18:40;8.87;;;3.67;;
870;SDS011;422;51.280;7.236;2023-03-31T10:21:14;5.73;;;2.97;;
870;SDS011;422;51.280;7.236;2023-03-31T10:23:46;7.10;;;4.10;;
870;SDS011;422;51.280;7.236;2023-03-31T10:26:15;10.00;;;3.60;;
870;SDS011;422;51.280;7.236;2023-03-31T10:28:46;8.17;;;4.90;;
870;SDS011;422;51.280;7.236;2023-03-31T10:31:16;10.20;;;3.90;;
870;SDS011;422;51.280;7.236;2023-03-31T10:33:45;7.37;;;3.17;;
870;SDS011;422;51.280;7.236;2023-03-31T10:36:17;10.23;;;4.43;;
870;SDS011;422;51.280;7.236;2023-03-31T10:38:48;6.20;;;3.20;;
870;SDS011;422;51.280;7.236;2023-03-31T10:41:17;6.63;;;3.03;;
870;SDS011;422;51.280;7.236;2023-03-31T10:43:49;9.03;;;3.47;;
870;SDS011;422;51.280;7.236;2023-03-31T10:46:17;8.27;;;3.10;;
870;SDS011;422;51.280;7.236;2023-03-31T10:48:45;13.07;;;4.20;;
870;SDS011;422;51.280;7.236;2023-03-31T10:51:14;10.50;;;3.40;;
870;SDS011;422;51.280;7.236;2023-03-31T10:53:43;9.50;;;3.43;;
870;SDS011;422;51.280;7.236;2023-03-31T10:56:17;13.57;;;3.67;;
870;SDS011;422;51.280;7.236;2023-03-31T10:59:20;6.77;;;3.43;;
870;SDS011;422;51.280;7.236;2023-03-31T11:01:57;10.93;;;4.20;;
870;SDS011;422;51.280;7.236;2023-03-31T11:04:45;10.20;;;4.00;;
870;SDS011;422;51.280;7.236;2023-03-31T11:10:20;11.60;;;4.33;;
870;SDS011;422;51.280;7.236;2023-03-31T11:13:03;8.27;;;4.23;;
870;SDS011;422;51.280;7.236;2023-03-31T11:15:40;7.10;;;3.00;;
870;SDS011;422;51.280;7.236;2023-03-31T11:21:09;6.67;;;3.50;;
870;SDS011;422;51.280;7.236;2023-03-31T11:23:45;5.27;;;2.63;;
870;SDS011;422;51.280;7.236;2023-03-31T11:26:21;2.97;;;1.90;;
870;SDS011;422;51.280;7.236;2023-03-31T11:28:58;5.47;;;2.30;;
870;SDS011;422;51.280;7.236;2023-03-31T11:31:34;4.17;;;2.50;;
870;SDS011;422;51.280;7.236;2023-03-31T11:34:11;6.10;;;2.20;;
870;SDS011;422;51.280;7.236;2023-03-31T11:37:02;5.73;;;2.20;;
870;SDS011;422;51.280;7.236;2023-03-31T11:39:51;6.37;;;1.80;;
870;SDS011;422;51.280;7.236;2023-03-31T11:42:30;4.83;;;2.17;;
870;SDS011;422;51.280;7.236;2023-03-31T11:45:02;5.30;;;2.43;;
870;SDS011;422;51.280;7.236;2023-03-31T11:47:39;5.23;;;2.37;;
870;SDS011;422;51.280;7.236;2023-03-31T11:50:09;4.77;;;2.23;;
870;SDS011;422;51.280;7.236;2023-03-31T11:52:41;5.00;;;2.27;;
870;SDS011;422;51.280;7.236;2023-03-31T11:55:14;6.80;;;2.10;;
870;SDS011;422;51.280;7.236;2023-03-31T11:57:44;4.40;;;2.20;;
870;SDS011;422;51.280;7.236;2023-03-31T12:00:16;4.50;;;2.17;;
870;SDS011;422;51.280;7.236;2023-03-31T12:02:50;5.23;;;2.00;;
870;SDS011;422;51.280;7.236;2023-03-31T12:05:21;3.83;;;2.00;;
870;SDS011;422;51.280;7.236;2023-03-31T12:07:55;3.40;;;2.13;;
870;SDS011;422;51.280;7.236;2023-03-31T12:10:30;8.70;;;2.47;;
870;SDS011;422;51.280;7.236;2023-03-31T12:13:04;6.30;;;2.57;;
870;SDS011;422;51.280;7.236;2023-03-31T12:15:41;4.63;;;2.43;;
870;SDS011;422;51.280;7.236;2023-03-31T12:18:17;6.90;;;3.13;;
870;SDS011;422;51.280;7.236;2023-03-31T12:20:49;9.47;;;3.23;;
870;SDS011;422;51.280;7.236;2023-03-31T12:23:21;8.33;;;2.97;;
870;SDS011;422;51.280;7.236;2023-03-31T12:25:53;5.57;;;2.20;;
870;SDS011;422;51.280;7.236;2023-03-31T12:28:26;6.77;;;2.33;;
870;SDS011;422;51.280;7.236;2023-03-31T12:30:56;8.23;;;2.53;;
870;SDS011;422;51.280;7.236;2023-03-31T12:33:29;6.10;;;2.57;;
870;SDS011;422;51.280;7.236;2023-03-31T12:36:03;7.40;;;2.40;;
870;SDS011;422;51.280;7.236;2023-03-31T12:38:41;5.60;;;2.93;;
870;SDS011;422;51.280;7.236;2023-03-31T12:41:22;4.87;;;2.47;;
870;SDS011;422;51.280;7.236;2023-03-31T12:44:09;4.53;;;2.87;;
870;SDS011;422;51.280;7.236;2023-03-31T12:46:54;5.13;;;2.20;;
870;SDS011;422;51.280;7.236;2023-03-31T12:49:49;4.67;;;2.60;;
870;SDS011;422;51.280;7.236;2023-03-31T12:52:26;5.33;;;3.07;;
870;SDS011;422;51.280;7.236;2023-03-31T12:58:34;6.60;;;2.43;;
870;SDS011;422;51.280;7.236;2023-03-31T13:01:07;7.73;;;3.17;;
870;SDS011;422;51.280;7.236;2023-03-31T13:03:43;8.50;;;3.30;;
870;SDS011;422;51.280;7.236;2023-03-31T13:06:51;5.90;;;3.27;;
870;SDS011;422;51.280;7.236;2023-03-31T13:09:39;8.20;;;3.80;;
870;SDS011;422;51.280;7.236;2023-03-31T13:12:08;8.50;;;3.43;;
870;SDS011;422;51.280;7.236;2023-03-31T13:14:41;10.03;;;5.97;;
870;SDS011;422;51.280;7.236;2023-03-31T13:17:11;10.20;;;5.50;;
870;SDS011;422;51.280;7.236;2023-03-31T13:19:46;8.20;;;6.03;;
870;SDS011;422;51.280;7.236;2023-03-31T13:22:28;9.43;;;4.03;;
870;SDS011;422;51.280;7.236;2023-03-31T13:28:12;8.73;;;4.23;;
870;SDS011;422;51.280;7.236;2023-03-31T13:30:50;8.50;;;3.30;;
870;SDS011;422;51.280;7.236;2023-03-31T13:33:22;11.37;;;3.10;;
870;SDS011;422;51.280;7.236;2023-03-31T13:35:52;14.10;;;3.40;;
870;SDS011;422;51.280;7.236;2023-03-31T13:38:35;11.20;;;3.60;;
870;SDS011;422;51.280;7.236;2023-03-31T13:41:18;7.53;;;3.10;;
870;SDS011;422;51.280;7.236;2023-03-31T13:44:00;6.60;;;3.00;;
870;SDS011;422;51.280;7.236;2023-03-31T13:47:02;7.60;;;2.87;;
870;SDS011;422;51.280;7.236;2023-03-31T13:50:13;5.80;;;3.23;;
870;SDS011;422;51.280;7.236;2023-03-31T13:52:54;6.43;;;3.50;;
870;SDS011;422;51.280;7.236;2023-03-31T13:55:49;7.57;;;2.90;;
870;SDS011;422;51.280;7.236;2023-03-31T14:01:38;6.13;;;2.83;;
870;SDS011;422;51.280;7.236;2023-03-31T14:04:38;4.50;;;2.40;;
870;SDS011;422;51.280;7.236;2023-03-31T14:07:21;7.60;;;2.40;;
870;SDS011;422;51.280;7.236;2023-03-31T14:09:56;8.80;;;3.10;;
870;SDS011;422;51.280;7.236;2023-03-31T14:12:30;7.23;;;2.73;;
870;SDS011;422;51.280;7.236;2023-03-31T14:14:58;7.70;;;3.50;;
870;SDS011;422;51.280;7.236;2023-03-31T14:17:26;7.40;;;3.03;;
870;SDS011;422;51.280;7.236;2023-03-31T14:20:12;5.30;;;2.90;;
870;SDS011;422;51.280;7.236;2023-03-31T14:23:13;7.53;;;2.90;;
870;SDS011;422;51.280;7.236;2023-03-31T14:25:50;5.10;;;2.37;;
870;SDS011;422;51.280;7.236;2023-03-31T14:28:31;7.77;;;2.93;;
870;SDS011;422;51.280;7.236;2023-03-31T14:31:11;5.37;;;2.40;;
870;SDS011;422;51.280;7.236;2023-03-31T14:33:47;11.37;;;2.90;;
870;SDS011;422;51.280;7.236;2023-03-31T14:36:31;7.37;;;3.70;;
870;SDS011;422;51.280;7.236;2023-03-31T14:39:07;6.17;;;2.77;;
870;SDS011;422;51.280;7.236;2023-03-31T14:41:36;10.53;;;2.73;;
870;SDS011;422;51.280;7.236;2023-03-31T14:44:06;5.30;;;2.50;;
870;SDS011;422;51.280;7.236;2023-03-31T14:46:37;5.53;;;2.80;;
870;SDS011;422;51.280;7.236;2023-03-31T14:49:06;8.17;;;3.10;;
870;SDS011;422;51.280;7.236;2023-03-31T14:51:42;8.00;;;3.13;;
870;SDS011;422;51.280;7.236;2023-03-31T14:54:13;5.23;;;2.50;;
870;SDS011;422;51.280;7.236;2023-03-31T14:56:45;4.10;;;2.53;;
870;SDS011;422;51.280;7.236;2023-03-31T14:59:17;5.20;;;2.00;;
870;SDS011;422;51.280;7.236;2023-03-31T15:01:48;7.20;;;2.67;;
870;SDS011;422;51.280;7.236;2023-03-31T15:04:17;4.13;;;2.20;;
870;SDS011;422;51.280;7.236;2023-03-31T15:06:47;6.10;;;2.07;;
870;SDS011;422;51.280;7.236;2023-03-31T15:09:18;6.33;;;2.07;;
870;SDS011;422;51.280;7.236;2023-03-31T15:11:52;4.93;;;2.17;;
870;SDS011;422;51.280;7.236;2023-03-31T15:14:24;5.97;;;2.37;;
870;SDS011;422;51.280;7.236;2023-03-31T15:16:55;7.13;;;2.20;;
870;SDS011;422;51.280;7.236;2023-03-31T15:19:23;7.97;;;2.53;;
870;SDS011;422;51.280;7.236;2023-03-31T15:21:53;6.20;;;2.20;;
870;SDS011;422;51.280;7.236;2023-03-31T15:24:21;6.10;;;2.70;;
870;SDS011;422;51.280;7.236;2023-03-31T15:26:50;9.30;;;2.40;;
870;SDS011;422;51.280;7.236;2023-03-31T15:29:24;5.43;;;3.70;;
870;SDS011;422;51.280;7.236;2023-03-31T15:31:57;4.87;;;2.87;;
870;SDS011;422;51.280;7.236;2023-03-31T15:34:25;6.43;;;2.37;;
870;SDS011;422;51.280;7.236;2023-03-31T15:36:57;9.13;;;2.80;;
870;SDS011;422;51.280;7.236;2023-03-31T15:39:26;5.57;;;2.33;;
870;SDS011;422;51.280;7.236;2023-03-31T15:41:55;5.70;;;2.73;;
870;SDS011;422;51.280;7.236;2023-03-31T15:44:29;4.87;;;2.30;;
870;SDS011;422;51.280;7.236;2023-03-31T15:47:05;10.13;;;3.47;;
870;SDS011;422;51.280;7.236;2023-03-31T15:49:37;6.37;;;3.50;;
870;SDS011;422;51.280;7.236;2023-03-31T15:52:18;7.00;;;3.30;;
870;SDS011;422;51.280;7.236;2023-03-31T15:54:54;8.40;;;3.00;;
870;SDS011;422;51.280;7.236;2023-03-31T15:57:22;6.37;;;2.53;;
870;SDS011;422;51.280;7.236;2023-03-31T15:59:59;10.03;;;3.03;;
870;SDS011;422;51.280;7.236;2023-03-31T16:02:33;5.70;;;2.50;;
870;SDS011;422;51.280;7.236;2023-03-31T16:05:05;5.80;;;2.57;;
870;SDS011;422;51.280;7.236;2023-03-31T16:07:47;5.57;;;2.83;;
870;SDS011;422;51.280;7.236;2023-03-31T16:10:15;11.03;;;3.33;;
870;SDS011;422;51.280;7.236;2023-03-31T16:12:48;7.97;;;2.90;;
870;SDS011;422;51.280;7.236;2023-03-31T16:15:20;5.47;;;3.07;;
870;SDS011;422;51.280;7.236;2023-03-31T16:17:55;4.73;;;2.33;;
870;SDS011;422;51.280;7.236;2023-03-31T16:20:25;4.60;;;2.53;;
870;SDS011;422;51.280;7.236;2023-03-31T16:22:57;5.10;;;2.33;;
870;SDS011;422;51.280;7.236;2023-03-31T16:25:25;7.80;;;3.10;;
870;SDS011;422;51.280;7.236;2023-03-31T16:27:55;5.73;;;2.47;;
870;SDS011;422;51.280;7.236;2023-03-31T16:30:33;4.00;;;2.40;;
870;SDS011;422;51.280;7.236;2023-03-31T16:33:02;7.03;;;3.63;;
870;SDS011;422;51.280;7.236;2023-03-31T16:35:32;4.87;;;2.43;;
870;SDS011;422;51.280;7.236;2023-03-31T16:38:01;5.30;;;2.73;;
870;SDS011;422;51.280;7.236;2023-03-31T16:40:28;5.73;;;2.20;;
870;SDS011;422;51.280;7.236;2023-03-31T16:43:09;5.40;;;2.13;;
870;SDS011;422;51.280;7.236;2023-03-31T16:45:42;4.13;;;2.20;;
870;SDS011;422;51.280;7.236;2023-03-31T16:48:11;5.20;;;2.47;;